sensor_id;sensor_type;location;lat;lon;timestamp;P1;durP1;ratioP1;P2;durP2;ratioP2
11319;SDS011;5715;48.234;14.320;2023-12-14T00:01:19;4.93;;;4.47;;
11319;SDS011;5715;48.234;14.320;2023-12-14T00:04:07;3.33;;;3.03;;
11319;SDS011;5715;48.234;14.320;2023-12-14T00:06:55;5.33;;;3.60;;
11319;SDS011;5715;48.234;14.320;2023-12-14T00:09:43;3.47;;;3.17;;
11319;SDS011;5715;48.234;14.320;2023-12-14T00:12:30;4.47;;;3.30;;
11319;SDS011;5715;48.234;14.320;2023-12-14T00:15:19;3.03;;;2.60;;
11319;SDS011;5715;48.234;14.320;2023-12-14T00:18:06;4.27;;;3.67;;
11319;SDS011;5715;48.234;14.320;2023-12-14T00:20:54;5.53;;;3.90;;
11319;SDS011;5715;48.234;14.320;2023-12-14T00:23:42;3.83;;;3.53;;
11319;SDS011;5715;48.234;14.320;2023-12-14T00:26:30;7.80;;;5.60;;
11319;SDS011;5715;48.234;14.320;2023-12-14T00:29:18;7.10;;;4.67;;
11319;SDS011;5715;48.234;14.320;2023-12-14T00:32:05;4.43;;;4.03;;
11319;SDS011;5715;48.234;14.320;2023-12-14T00:34:53;8.80;;;4.77;;
11319;SDS011;5715;48.234;14.320;2023-12-14T00:37:41;5.57;;;3.63;;
11319;SDS011;5715;48.234;14.320;2023-12-14T00:40:29;7.10;;;3.33;;
11319;SDS011;5715;48.234;14.320;2023-12-14T00:43:16;3.97;;;3.60;;
11319;SDS011;5715;48.234;14.320;2023-12-14T00:46:04;6.13;;;3.80;;
11319;SDS011;5715;48.234;14.320;2023-12-14T00:48:51;7.87;;;4.00;;
11319;SDS011;5715;48.234;14.320;2023-12-14T00:51:39;5.10;;;3.17;;
11319;SDS011;5715;48.234;14.320;2023-12-14T00:54:27;4.40;;;3.80;;
11319;SDS011;5715;48.234;14.320;2023-12-14T00:57:14;4.27;;;3.23;;
11319;SDS011;5715;48.234;14.320;2023-12-14T01:00:02;4.83;;;3.17;;
11319;SDS011;5715;48.234;14.320;2023-12-14T01:02:50;3.57;;;3.27;;
11319;SDS011;5715;48.234;14.320;2023-12-14T01:05:38;5.03;;;3.27;;
11319;SDS011;5715;48.234;14.320;2023-12-14T01:08:26;2.83;;;2.60;;
11319;SDS011;5715;48.234;14.320;2023-12-14T01:11:13;5.87;;;4.07;;
11319;SDS011;5715;48.234;14.320;2023-12-14T01:14:01;3.33;;;3.03;;
11319;SDS011;5715;48.234;14.320;2023-12-14T01:16:49;3.47;;;2.93;;
11319;SDS011;5715;48.234;14.320;2023-12-14T01:19:39;4.00;;;3.60;;
11319;SDS011;5715;48.234;14.320;2023-12-14T01:22:27;4.00;;;2.63;;
11319;SDS011;5715;48.234;14.320;2023-12-14T01:25:15;3.83;;;3.40;;
11319;SDS011;5715;48.234;14.320;2023-12-14T01:28:03;6.00;;;3.37;;
11319;SDS011;5715;48.234;14.320;2023-12-14T01:30:52;5.70;;;3.03;;
11319;SDS011;5715;48.234;14.320;2023-12-14T01:33:40;5.23;;;4.00;;
11319;SDS011;5715;48.234;14.320;2023-12-14T01:36:28;3.23;;;2.93;;
11319;SDS011;5715;48.234;14.320;2023-12-14T01:39:15;4.67;;;3.37;;
11319;SDS011;5715;48.234;14.320;2023-12-14T01:42:03;5.30;;;3.87;;
11319;SDS011;5715;48.234;14.320;2023-12-14T01:44:51;3.40;;;3.07;;
11319;SDS011;5715;48.234;14.320;2023-12-14T01:47:38;7.07;;;3.63;;
11319;SDS011;5715;48.234;14.320;2023-12-14T01:50:26;2.70;;;2.43;;
11319;SDS011;5715;48.234;14.320;2023-12-14T01:53:13;3.63;;;3.33;;
11319;SDS011;5715;48.234;14.320;2023-12-14T01:56:01;2.97;;;2.67;;
11319;SDS011;5715;48.234;14.320;2023-12-14T01:58:49;3.07;;;2.70;;
11319;SDS011;5715;48.234;14.320;2023-12-14T02:04:33;4.07;;;3.67;;
11319;SDS011;5715;48.234;14.320;2023-12-14T02:07:20;2.57;;;2.37;;
11319;SDS011;5715;48.234;14.320;2023-12-14T02:10:08;4.73;;;3.13;;
11319;SDS011;5715;48.234;14.320;2023-12-14T02:12:55;3.57;;;3.27;;
11319;SDS011;5715;48.234;14.320;2023-12-14T02:15:43;3.10;;;2.87;;
11319;SDS011;5715;48.234;14.320;2023-12-14T02:18:31;3.17;;;2.87;;
11319;SDS011;5715;48.234;14.320;2023-12-14T02:21:19;4.13;;;2.87;;
11319;SDS011;5715;48.234;14.320;2023-12-14T02:24:06;1.77;;;1.53;;
11319;SDS011;5715;48.234;14.320;2023-12-14T02:26:54;1.80;;;1.70;;
11319;SDS011;5715;48.234;14.320;2023-12-14T02:29:49;3.63;;;2.47;;
11319;SDS011;5715;48.234;14.320;2023-12-14T02:32:37;1.90;;;1.80;;
11319;SDS011;5715;48.234;14.320;2023-12-14T02:35:28;2.00;;;1.90;;
11319;SDS011;5715;48.234;14.320;2023-12-14T02:38:15;1.70;;;1.60;;
11319;SDS011;5715;48.234;14.320;2023-12-14T02:41:03;2.27;;;2.17;;
11319;SDS011;5715;48.234;14.320;2023-12-14T02:43:51;1.90;;;1.80;;
11319;SDS011;5715;48.234;14.320;2023-12-14T02:46:39;1.97;;;1.60;;
11319;SDS011;5715;48.234;14.320;2023-12-14T02:49:27;2.13;;;1.93;;
11319;SDS011;5715;48.234;14.320;2023-12-14T02:52:14;2.90;;;2.20;;
11319;SDS011;5715;48.234;14.320;2023-12-14T02:55:02;1.90;;;1.80;;
11319;SDS011;5715;48.234;14.320;2023-12-14T02:57:50;2.10;;;1.83;;
11319;SDS011;5715;48.234;14.320;2023-12-14T03:00:38;1.90;;;1.80;;
11319;SDS011;5715;48.234;14.320;2023-12-14T03:03:26;2.03;;;1.93;;
11319;SDS011;5715;48.234;14.320;2023-12-14T03:06:14;2.83;;;2.47;;
11319;SDS011;5715;48.234;14.320;2023-12-14T03:09:01;2.30;;;1.90;;
11319;SDS011;5715;48.234;14.320;2023-12-14T03:11:49;2.27;;;2.07;;
11319;SDS011;5715;48.234;14.320;2023-12-14T03:14:37;2.93;;;2.63;;
11319;SDS011;5715;48.234;14.320;2023-12-14T03:17:24;2.77;;;2.20;;
11319;SDS011;5715;48.234;14.320;2023-12-14T03:20:12;2.53;;;2.30;;
11319;SDS011;5715;48.234;14.320;2023-12-14T03:23:07;1.67;;;1.57;;
11319;SDS011;5715;48.234;14.320;2023-12-14T03:25:59;3.80;;;1.80;;
11319;SDS011;5715;48.234;14.320;2023-12-14T03:28:48;2.30;;;2.10;;
11319;SDS011;5715;48.234;14.320;2023-12-14T03:31:36;2.60;;;2.40;;
11319;SDS011;5715;48.234;14.320;2023-12-14T03:34:24;2.97;;;2.03;;
11319;SDS011;5715;48.234;14.320;2023-12-14T03:37:12;2.03;;;1.90;;
11319;SDS011;5715;48.234;14.320;2023-12-14T03:39:59;1.97;;;1.87;;
11319;SDS011;5715;48.234;14.320;2023-12-14T03:42:47;2.43;;;1.90;;
11319;SDS011;5715;48.234;14.320;2023-12-14T03:45:35;2.33;;;2.13;;
11319;SDS011;5715;48.234;14.320;2023-12-14T03:48:22;1.90;;;1.80;;
11319;SDS011;5715;48.234;14.320;2023-12-14T03:51:10;2.83;;;2.57;;
11319;SDS011;5715;48.234;14.320;2023-12-14T03:53:57;2.10;;;2.00;;
11319;SDS011;5715;48.234;14.320;2023-12-14T03:56:45;4.47;;;2.40;;
11319;SDS011;5715;48.234;14.320;2023-12-14T03:59:33;3.07;;;2.33;;
11319;SDS011;5715;48.234;14.320;2023-12-14T04:02:22;2.57;;;2.37;;
11319;SDS011;5715;48.234;14.320;2023-12-14T04:05:10;2.87;;;2.47;;
11319;SDS011;5715;48.234;14.320;2023-12-14T04:07:58;1.83;;;1.73;;
11319;SDS011;5715;48.234;14.320;2023-12-14T04:10:46;2.23;;;2.03;;
11319;SDS011;5715;48.234;14.320;2023-12-14T04:13:34;2.33;;;2.07;;
11319;SDS011;5715;48.234;14.320;2023-12-14T04:16:22;2.57;;;2.37;;
11319;SDS011;5715;48.234;14.320;2023-12-14T04:19:12;1.77;;;1.67;;
11319;SDS011;5715;48.234;14.320;2023-12-14T04:21:59;2.30;;;2.10;;
11319;SDS011;5715;48.234;14.320;2023-12-14T04:24:49;2.10;;;2.00;;
11319;SDS011;5715;48.234;14.320;2023-12-14T04:27:37;3.47;;;2.87;;
11319;SDS011;5715;48.234;14.320;2023-12-14T04:30:25;1.83;;;1.73;;
11319;SDS011;5715;48.234;14.320;2023-12-14T04:33:13;2.33;;;2.13;;
11319;SDS011;5715;48.234;14.320;2023-12-14T04:36:00;2.30;;;2.07;;
11319;SDS011;5715;48.234;14.320;2023-12-14T04:38:49;3.43;;;2.33;;
11319;SDS011;5715;48.234;14.320;2023-12-14T04:41:37;2.67;;;2.10;;
11319;SDS011;5715;48.234;14.320;2023-12-14T04:44:24;2.77;;;2.50;;
11319;SDS011;5715;48.234;14.320;2023-12-14T04:47:12;2.33;;;2.13;;
11319;SDS011;5715;48.234;14.320;2023-12-14T04:49:59;10.27;;;4.03;;
11319;SDS011;5715;48.234;14.320;2023-12-14T04:52:48;3.67;;;2.43;;
11319;SDS011;5715;48.234;14.320;2023-12-14T04:55:35;4.20;;;2.80;;
11319;SDS011;5715;48.234;14.320;2023-12-14T04:58:23;4.40;;;2.43;;
11319;SDS011;5715;48.234;14.320;2023-12-14T05:01:11;8.00;;;2.73;;
11319;SDS011;5715;48.234;14.320;2023-12-14T05:03:59;2.63;;;2.30;;
11319;SDS011;5715;48.234;14.320;2023-12-14T05:06:46;2.17;;;2.00;;
11319;SDS011;5715;48.234;14.320;2023-12-14T05:09:34;2.60;;;2.40;;
11319;SDS011;5715;48.234;14.320;2023-12-14T05:12:22;4.07;;;2.50;;
11319;SDS011;5715;48.234;14.320;2023-12-14T05:15:12;6.20;;;2.83;;
11319;SDS011;5715;48.234;14.320;2023-12-14T05:17:59;2.63;;;2.43;;
11319;SDS011;5715;48.234;14.320;2023-12-14T05:20:47;4.23;;;3.10;;
11319;SDS011;5715;48.234;14.320;2023-12-14T05:23:35;2.50;;;2.27;;
11319;SDS011;5715;48.234;14.320;2023-12-14T05:26:23;3.33;;;2.30;;
11319;SDS011;5715;48.234;14.320;2023-12-14T05:29:10;3.47;;;2.93;;
11319;SDS011;5715;48.234;14.320;2023-12-14T05:31:58;3.60;;;2.93;;
11319;SDS011;5715;48.234;14.320;2023-12-14T05:34:46;3.67;;;2.43;;
11319;SDS011;5715;48.234;14.320;2023-12-14T05:37:34;3.30;;;3.07;;
11319;SDS011;5715;48.234;14.320;2023-12-14T05:40:22;3.37;;;2.67;;
11319;SDS011;5715;48.234;14.320;2023-12-14T05:43:10;5.77;;;2.20;;
11319;SDS011;5715;48.234;14.320;2023-12-14T05:45:58;3.37;;;2.77;;
11319;SDS011;5715;48.234;14.320;2023-12-14T05:48:46;4.40;;;1.97;;
11319;SDS011;5715;48.234;14.320;2023-12-14T05:51:34;3.10;;;2.60;;
11319;SDS011;5715;48.234;14.320;2023-12-14T05:54:22;2.63;;;2.30;;
11319;SDS011;5715;48.234;14.320;2023-12-14T05:57:09;2.60;;;2.23;;
11319;SDS011;5715;48.234;14.320;2023-12-14T06:00:00;2.97;;;2.40;;
11319;SDS011;5715;48.234;14.320;2023-12-14T06:02:47;4.00;;;2.17;;
11319;SDS011;5715;48.234;14.320;2023-12-14T06:05:35;3.53;;;2.20;;
11319;SDS011;5715;48.234;14.320;2023-12-14T06:08:23;1.90;;;1.70;;
11319;SDS011;5715;48.234;14.320;2023-12-14T06:11:11;2.50;;;2.17;;
11319;SDS011;5715;48.234;14.320;2023-12-14T06:13:58;2.10;;;2.00;;
11319;SDS011;5715;48.234;14.320;2023-12-14T06:16:46;1.57;;;1.47;;
11319;SDS011;5715;48.234;14.320;2023-12-14T06:19:34;1.90;;;1.80;;
11319;SDS011;5715;48.234;14.320;2023-12-14T06:22:22;1.90;;;1.80;;
11319;SDS011;5715;48.234;14.320;2023-12-14T06:25:09;2.40;;;2.20;;
11319;SDS011;5715;48.234;14.320;2023-12-14T06:27:58;1.83;;;1.40;;
11319;SDS011;5715;48.234;14.320;2023-12-14T06:30:45;2.50;;;2.07;;
11319;SDS011;5715;48.234;14.320;2023-12-14T06:33:33;2.53;;;2.30;;
11319;SDS011;5715;48.234;14.320;2023-12-14T06:36:21;2.67;;;2.47;;
11319;SDS011;5715;48.234;14.320;2023-12-14T06:39:13;2.50;;;2.30;;
11319;SDS011;5715;48.234;14.320;2023-12-14T06:42:04;3.23;;;2.90;;
11319;SDS011;5715;48.234;14.320;2023-12-14T06:44:52;2.37;;;2.17;;
11319;SDS011;5715;48.234;14.320;2023-12-14T06:47:40;7.73;;;3.53;;
11319;SDS011;5715;48.234;14.320;2023-12-14T06:50:30;2.77;;;2.10;;
11319;SDS011;5715;48.234;14.320;2023-12-14T06:53:17;2.50;;;2.30;;
11319;SDS011;5715;48.234;14.320;2023-12-14T06:56:05;4.67;;;2.93;;
11319;SDS011;5715;48.234;14.320;2023-12-14T06:58:58;3.33;;;3.03;;
11319;SDS011;5715;48.234;14.320;2023-12-14T07:01:46;2.00;;;1.87;;
11319;SDS011;5715;48.234;14.320;2023-12-14T07:04:34;2.17;;;2.03;;
11319;SDS011;5715;48.234;14.320;2023-12-14T07:07:22;2.83;;;2.63;;
11319;SDS011;5715;48.234;14.320;2023-12-14T07:10:09;2.80;;;2.60;;
11319;SDS011;5715;48.234;14.320;2023-12-14T07:12:57;2.77;;;2.57;;
11319;SDS011;5715;48.234;14.320;2023-12-14T07:15:45;1.70;;;1.60;;
11319;SDS011;5715;48.234;14.320;2023-12-14T07:18:36;3.90;;;2.10;;
11319;SDS011;5715;48.234;14.320;2023-12-14T07:21:25;2.10;;;2.00;;
11319;SDS011;5715;48.234;14.320;2023-12-14T07:24:13;1.63;;;1.53;;
11319;SDS011;5715;48.234;14.320;2023-12-14T07:27:01;3.23;;;2.93;;
11319;SDS011;5715;48.234;14.320;2023-12-14T07:29:48;2.63;;;2.43;;
11319;SDS011;5715;48.234;14.320;2023-12-14T07:32:36;2.37;;;2.17;;
11319;SDS011;5715;48.234;14.320;2023-12-14T07:35:24;3.13;;;2.33;;
11319;SDS011;5715;48.234;14.320;2023-12-14T07:38:12;2.63;;;2.13;;
11319;SDS011;5715;48.234;14.320;2023-12-14T07:41:00;2.30;;;2.13;;
11319;SDS011;5715;48.234;14.320;2023-12-14T07:43:48;2.53;;;1.97;;
11319;SDS011;5715;48.234;14.320;2023-12-14T07:46:35;3.33;;;2.43;;
11319;SDS011;5715;48.234;14.320;2023-12-14T07:49:28;4.50;;;2.30;;
11319;SDS011;5715;48.234;14.320;2023-12-14T07:52:15;2.63;;;2.43;;
11319;SDS011;5715;48.234;14.320;2023-12-14T07:55:04;2.17;;;2.07;;
11319;SDS011;5715;48.234;14.320;2023-12-14T07:57:52;2.40;;;2.20;;
11319;SDS011;5715;48.234;14.320;2023-12-14T08:00:41;1.67;;;1.57;;
11319;SDS011;5715;48.234;14.320;2023-12-14T08:03:28;1.73;;;1.63;;
11319;SDS011;5715;48.234;14.320;2023-12-14T08:06:16;2.90;;;2.07;;
11319;SDS011;5715;48.234;14.320;2023-12-14T08:09:04;2.10;;;1.90;;
11319;SDS011;5715;48.234;14.320;2023-12-14T08:11:53;2.57;;;2.37;;
11319;SDS011;5715;48.234;14.320;2023-12-14T08:14:41;6.60;;;1.70;;
11319;SDS011;5715;48.234;14.320;2023-12-14T08:17:30;1.30;;;1.27;;
11319;SDS011;5715;48.234;14.320;2023-12-14T08:20:18;1.77;;;1.67;;
11319;SDS011;5715;48.234;14.320;2023-12-14T08:23:06;1.87;;;1.70;;
11319;SDS011;5715;48.234;14.320;2023-12-14T08:25:53;2.07;;;1.97;;
11319;SDS011;5715;48.234;14.320;2023-12-14T08:28:44;1.67;;;1.53;;
11319;SDS011;5715;48.234;14.320;2023-12-14T08:31:32;1.40;;;1.30;;
11319;SDS011;5715;48.234;14.320;2023-12-14T08:34:20;1.67;;;1.57;;
11319;SDS011;5715;48.234;14.320;2023-12-14T08:37:07;1.70;;;1.60;;
11319;SDS011;5715;48.234;14.320;2023-12-14T08:39:55;1.30;;;1.30;;
11319;SDS011;5715;48.234;14.320;2023-12-14T08:42:43;1.47;;;1.37;;
11319;SDS011;5715;48.234;14.320;2023-12-14T08:45:30;4.87;;;1.70;;
11319;SDS011;5715;48.234;14.320;2023-12-14T08:48:18;2.10;;;1.87;;
11319;SDS011;5715;48.234;14.320;2023-12-14T08:51:06;2.17;;;1.83;;
11319;SDS011;5715;48.234;14.320;2023-12-14T08:53:54;1.67;;;1.47;;
11319;SDS011;5715;48.234;14.320;2023-12-14T08:56:41;1.50;;;1.40;;
11319;SDS011;5715;48.234;14.320;2023-12-14T08:59:29;1.07;;;1.07;;
11319;SDS011;5715;48.234;14.320;2023-12-14T09:02:17;1.30;;;1.20;;
11319;SDS011;5715;48.234;14.320;2023-12-14T09:05:04;1.43;;;1.33;;
11319;SDS011;5715;48.234;14.320;2023-12-14T09:07:53;1.43;;;1.33;;
11319;SDS011;5715;48.234;14.320;2023-12-14T09:10:43;1.63;;;1.50;;
11319;SDS011;5715;48.234;14.320;2023-12-14T09:13:31;1.40;;;1.30;;
11319;SDS011;5715;48.234;14.320;2023-12-14T09:16:19;0.93;;;0.93;;
11319;SDS011;5715;48.234;14.320;2023-12-14T09:19:07;1.27;;;1.23;;
11319;SDS011;5715;48.234;14.320;2023-12-14T09:21:55;1.20;;;1.17;;
11319;SDS011;5715;48.234;14.320;2023-12-14T09:24:43;1.50;;;1.40;;
11319;SDS011;5715;48.234;14.320;2023-12-14T09:27:30;1.30;;;1.30;;
11319;SDS011;5715;48.234;14.320;2023-12-14T09:30:18;0.90;;;0.90;;
11319;SDS011;5715;48.234;14.320;2023-12-14T09:33:06;1.30;;;1.20;;
11319;SDS011;5715;48.234;14.320;2023-12-14T09:35:55;1.00;;;1.00;;
11319;SDS011;5715;48.234;14.320;2023-12-14T09:38:43;1.10;;;1.10;;
11319;SDS011;5715;48.234;14.320;2023-12-14T09:41:32;0.90;;;0.90;;
11319;SDS011;5715;48.234;14.320;2023-12-14T09:44:19;1.17;;;1.10;;
11319;SDS011;5715;48.234;14.320;2023-12-14T09:47:08;0.90;;;0.90;;
11319;SDS011;5715;48.234;14.320;2023-12-14T09:49:56;0.97;;;0.97;;
11319;SDS011;5715;48.234;14.320;2023-12-14T09:52:45;0.93;;;0.93;;
11319;SDS011;5715;48.234;14.320;2023-12-14T09:55:35;1.20;;;1.10;;
11319;SDS011;5715;48.234;14.320;2023-12-14T09:58:23;0.90;;;0.90;;
11319;SDS011;5715;48.234;14.320;2023-12-14T10:01:23;1.53;;;1.37;;
11319;SDS011;5715;48.234;14.320;2023-12-14T10:04:14;1.30;;;1.20;;
11319;SDS011;5715;48.234;14.320;2023-12-14T10:07:03;1.33;;;1.23;;
11319;SDS011;5715;48.234;14.320;2023-12-14T10:09:54;1.10;;;1.10;;
11319;SDS011;5715;48.234;14.320;2023-12-14T10:12:50;1.00;;;1.00;;
11319;SDS011;5715;48.234;14.320;2023-12-14T10:15:42;1.40;;;1.30;;
11319;SDS011;5715;48.234;14.320;2023-12-14T10:18:36;1.77;;;1.67;;
11319;SDS011;5715;48.234;14.320;2023-12-14T10:21:28;1.20;;;1.20;;
11319;SDS011;5715;48.234;14.320;2023-12-14T10:24:17;1.10;;;1.10;;
11319;SDS011;5715;48.234;14.320;2023-12-14T10:27:06;0.80;;;0.80;;
11319;SDS011;5715;48.234;14.320;2023-12-14T10:29:55;1.13;;;1.13;;
11319;SDS011;5715;48.234;14.320;2023-12-14T10:32:43;1.40;;;1.30;;
11319;SDS011;5715;48.234;14.320;2023-12-14T10:35:31;1.47;;;1.20;;
11319;SDS011;5715;48.234;14.320;2023-12-14T10:38:19;1.97;;;1.40;;
11319;SDS011;5715;48.234;14.320;2023-12-14T10:41:07;1.10;;;1.10;;
11319;SDS011;5715;48.234;14.320;2023-12-14T10:43:56;1.40;;;1.30;;
11319;SDS011;5715;48.234;14.320;2023-12-14T10:47:05;1.60;;;1.50;;
11319;SDS011;5715;48.234;14.320;2023-12-14T10:49:54;1.10;;;1.10;;
11319;SDS011;5715;48.234;14.320;2023-12-14T10:52:46;1.70;;;1.23;;
11319;SDS011;5715;48.234;14.320;2023-12-14T10:55:40;1.90;;;1.80;;
11319;SDS011;5715;48.234;14.320;2023-12-14T11:01:42;1.40;;;1.30;;
11319;SDS011;5715;48.234;14.320;2023-12-14T11:04:30;3.67;;;3.47;;
11319;SDS011;5715;48.234;14.320;2023-12-14T11:07:48;1.60;;;1.50;;
11319;SDS011;5715;48.234;14.320;2023-12-14T11:11:01;2.10;;;1.73;;
11319;SDS011;5715;48.234;14.320;2023-12-14T11:13:58;1.93;;;1.70;;
11319;SDS011;5715;48.234;14.320;2023-12-14T11:16:49;4.03;;;2.00;;
11319;SDS011;5715;48.234;14.320;2023-12-14T11:19:40;2.03;;;1.90;;
11319;SDS011;5715;48.234;14.320;2023-12-14T11:22:29;1.97;;;1.70;;
11319;SDS011;5715;48.234;14.320;2023-12-14T11:25:18;2.50;;;2.23;;
11319;SDS011;5715;48.234;14.320;2023-12-14T11:28:17;3.33;;;2.10;;
11319;SDS011;5715;48.234;14.320;2023-12-14T11:31:07;1.97;;;1.87;;
11319;SDS011;5715;48.234;14.320;2023-12-14T11:33:59;2.97;;;2.67;;
11319;SDS011;5715;48.234;14.320;2023-12-14T11:36:50;3.50;;;3.20;;
11319;SDS011;5715;48.234;14.320;2023-12-14T11:39:37;3.77;;;2.53;;
11319;SDS011;5715;48.234;14.320;2023-12-14T11:42:25;4.73;;;3.57;;
11319;SDS011;5715;48.234;14.320;2023-12-14T11:45:18;2.90;;;2.70;;
11319;SDS011;5715;48.234;14.320;2023-12-14T11:48:06;4.20;;;2.80;;
11319;SDS011;5715;48.234;14.320;2023-12-14T11:50:57;2.87;;;2.60;;
11319;SDS011;5715;48.234;14.320;2023-12-14T11:53:45;6.53;;;3.33;;
11319;SDS011;5715;48.234;14.320;2023-12-14T11:56:37;4.10;;;3.70;;
11319;SDS011;5715;48.234;14.320;2023-12-14T11:59:25;5.77;;;3.73;;
11319;SDS011;5715;48.234;14.320;2023-12-14T12:02:22;3.93;;;3.50;;
11319;SDS011;5715;48.234;14.320;2023-12-14T12:05:11;6.93;;;4.17;;
11319;SDS011;5715;48.234;14.320;2023-12-14T12:08:05;11.13;;;5.33;;
11319;SDS011;5715;48.234;14.320;2023-12-14T12:10:54;5.57;;;4.67;;
11319;SDS011;5715;48.234;14.320;2023-12-14T12:13:44;5.27;;;3.83;;
11319;SDS011;5715;48.234;14.320;2023-12-14T12:16:38;4.30;;;3.63;;
11319;SDS011;5715;48.234;14.320;2023-12-14T12:19:26;4.47;;;3.70;;
11319;SDS011;5715;48.234;14.320;2023-12-14T12:22:13;5.73;;;4.13;;
11319;SDS011;5715;48.234;14.320;2023-12-14T12:25:01;4.43;;;3.90;;
11319;SDS011;5715;48.234;14.320;2023-12-14T12:28:01;4.87;;;4.20;;
11319;SDS011;5715;48.234;14.320;2023-12-14T12:30:52;3.57;;;3.27;;
11319;SDS011;5715;48.234;14.320;2023-12-14T12:33:40;6.23;;;4.47;;
11319;SDS011;5715;48.234;14.320;2023-12-14T12:36:28;4.27;;;3.80;;
11319;SDS011;5715;48.234;14.320;2023-12-14T12:39:15;4.30;;;3.33;;
11319;SDS011;5715;48.234;14.320;2023-12-14T12:42:03;3.40;;;3.10;;
11319;SDS011;5715;48.234;14.320;2023-12-14T12:44:52;4.33;;;3.93;;
11319;SDS011;5715;48.234;14.320;2023-12-14T12:47:39;12.33;;;5.20;;
11319;SDS011;5715;48.234;14.320;2023-12-14T12:50:27;12.17;;;3.87;;
11319;SDS011;5715;48.234;14.320;2023-12-14T12:53:15;6.17;;;3.73;;
11319;SDS011;5715;48.234;14.320;2023-12-14T12:56:03;9.80;;;3.87;;
11319;SDS011;5715;48.234;14.320;2023-12-14T12:58:51;5.77;;;3.57;;
11319;SDS011;5715;48.234;14.320;2023-12-14T13:01:40;3.90;;;3.60;;
11319;SDS011;5715;48.234;14.320;2023-12-14T13:04:28;6.30;;;4.37;;
11319;SDS011;5715;48.234;14.320;2023-12-14T13:07:17;8.80;;;2.80;;
11319;SDS011;5715;48.234;14.320;2023-12-14T13:10:05;3.40;;;3.10;;
11319;SDS011;5715;48.234;14.320;2023-12-14T13:13:13;3.83;;;2.87;;
11319;SDS011;5715;48.234;14.320;2023-12-14T13:16:01;3.73;;;3.40;;
11319;SDS011;5715;48.234;14.320;2023-12-14T13:18:49;2.63;;;2.43;;
11319;SDS011;5715;48.234;14.320;2023-12-14T13:21:36;3.10;;;2.77;;
11319;SDS011;5715;48.234;14.320;2023-12-14T13:24:24;2.53;;;2.33;;
11319;SDS011;5715;48.234;14.320;2023-12-14T13:27:12;3.37;;;2.73;;
11319;SDS011;5715;48.234;14.320;2023-12-14T13:30:00;7.47;;;3.30;;
11319;SDS011;5715;48.234;14.320;2023-12-14T13:32:48;2.43;;;2.23;;
11319;SDS011;5715;48.234;14.320;2023-12-14T13:35:36;2.43;;;2.23;;
11319;SDS011;5715;48.234;14.320;2023-12-14T13:38:23;7.13;;;3.10;;
11319;SDS011;5715;48.234;14.320;2023-12-14T13:41:12;2.97;;;2.73;;
11319;SDS011;5715;48.234;14.320;2023-12-14T13:44:00;3.00;;;2.13;;
11319;SDS011;5715;48.234;14.320;2023-12-14T13:46:48;2.87;;;2.63;;
11319;SDS011;5715;48.234;14.320;2023-12-14T13:49:36;4.10;;;3.20;;
11319;SDS011;5715;48.234;14.320;2023-12-14T13:52:24;2.27;;;2.07;;
11319;SDS011;5715;48.234;14.320;2023-12-14T13:55:16;3.60;;;2.70;;
11319;SDS011;5715;48.234;14.320;2023-12-14T13:58:03;4.97;;;3.30;;
11319;SDS011;5715;48.234;14.320;2023-12-14T14:00:52;4.60;;;3.73;;
11319;SDS011;5715;48.234;14.320;2023-12-14T14:03:40;2.40;;;2.20;;
11319;SDS011;5715;48.234;14.320;2023-12-14T14:06:29;2.23;;;2.03;;
11319;SDS011;5715;48.234;14.320;2023-12-14T14:09:17;4.60;;;2.97;;
11319;SDS011;5715;48.234;14.320;2023-12-14T14:12:06;4.00;;;2.53;;
11319;SDS011;5715;48.234;14.320;2023-12-14T14:14:54;2.40;;;2.20;;
11319;SDS011;5715;48.234;14.320;2023-12-14T14:17:41;1.90;;;1.70;;
11319;SDS011;5715;48.234;14.320;2023-12-14T14:20:29;2.60;;;2.33;;
11319;SDS011;5715;48.234;14.320;2023-12-14T14:23:17;1.90;;;1.70;;
11319;SDS011;5715;48.234;14.320;2023-12-14T14:26:05;2.47;;;2.10;;
11319;SDS011;5715;48.234;14.320;2023-12-14T14:28:53;10.83;;;3.13;;
11319;SDS011;5715;48.234;14.320;2023-12-14T14:31:47;2.23;;;2.07;;
11319;SDS011;5715;48.234;14.320;2023-12-14T14:34:35;1.40;;;1.37;;
11319;SDS011;5715;48.234;14.320;2023-12-14T14:37:22;2.50;;;1.90;;
11319;SDS011;5715;48.234;14.320;2023-12-14T14:40:14;1.93;;;1.83;;
11319;SDS011;5715;48.234;14.320;2023-12-14T14:43:02;3.33;;;1.83;;
11319;SDS011;5715;48.234;14.320;2023-12-14T14:45:49;2.17;;;1.97;;
11319;SDS011;5715;48.234;14.320;2023-12-14T14:48:37;2.60;;;2.07;;
11319;SDS011;5715;48.234;14.320;2023-12-14T14:51:25;2.43;;;1.97;;
11319;SDS011;5715;48.234;14.320;2023-12-14T14:54:13;2.87;;;2.57;;
11319;SDS011;5715;48.234;14.320;2023-12-14T14:57:01;2.77;;;2.40;;
11319;SDS011;5715;48.234;14.320;2023-12-14T14:59:51;2.53;;;2.23;;
11319;SDS011;5715;48.234;14.320;2023-12-14T15:02:39;3.40;;;2.40;;
11319;SDS011;5715;48.234;14.320;2023-12-14T15:05:27;4.50;;;2.33;;
11319;SDS011;5715;48.234;14.320;2023-12-14T15:08:15;2.63;;;1.83;;
11319;SDS011;5715;48.234;14.320;2023-12-14T15:11:03;2.90;;;2.23;;
11319;SDS011;5715;48.234;14.320;2023-12-14T15:13:53;3.67;;;2.70;;
11319;SDS011;5715;48.234;14.320;2023-12-14T15:16:40;4.77;;;2.93;;
11319;SDS011;5715;48.234;14.320;2023-12-14T15:19:28;3.70;;;2.17;;
11319;SDS011;5715;48.234;14.320;2023-12-14T15:22:16;2.77;;;2.23;;
11319;SDS011;5715;48.234;14.320;2023-12-14T15:25:04;4.23;;;3.00;;
11319;SDS011;5715;48.234;14.320;2023-12-14T15:27:52;2.93;;;2.73;;
11319;SDS011;5715;48.234;14.320;2023-12-14T15:30:39;3.47;;;2.37;;
11319;SDS011;5715;48.234;14.320;2023-12-14T15:33:27;3.50;;;3.20;;
11319;SDS011;5715;48.234;14.320;2023-12-14T15:36:15;5.23;;;3.43;;
11319;SDS011;5715;48.234;14.320;2023-12-14T15:39:03;4.13;;;3.33;;
11319;SDS011;5715;48.234;14.320;2023-12-14T15:41:51;3.90;;;2.67;;
11319;SDS011;5715;48.234;14.320;2023-12-14T15:44:39;3.23;;;2.93;;
11319;SDS011;5715;48.234;14.320;2023-12-14T15:47:26;4.60;;;2.93;;
11319;SDS011;5715;48.234;14.320;2023-12-14T15:50:14;2.30;;;2.10;;
11319;SDS011;5715;48.234;14.320;2023-12-14T15:53:02;3.60;;;2.80;;
11319;SDS011;5715;48.234;14.320;2023-12-14T15:55:51;12.47;;;3.30;;
11319;SDS011;5715;48.234;14.320;2023-12-14T15:58:38;4.47;;;3.33;;
11319;SDS011;5715;48.234;14.320;2023-12-14T16:01:26;4.73;;;3.03;;
11319;SDS011;5715;48.234;14.320;2023-12-14T16:04:14;4.27;;;3.23;;
11319;SDS011;5715;48.234;14.320;2023-12-14T16:07:01;4.90;;;2.80;;
11319;SDS011;5715;48.234;14.320;2023-12-14T16:09:52;3.97;;;2.87;;
11319;SDS011;5715;48.234;14.320;2023-12-14T16:12:40;3.53;;;2.77;;
11319;SDS011;5715;48.234;14.320;2023-12-14T16:15:27;3.07;;;2.77;;
11319;SDS011;5715;48.234;14.320;2023-12-14T16:18:16;3.07;;;2.57;;
11319;SDS011;5715;48.234;14.320;2023-12-14T16:21:06;3.13;;;2.83;;
11319;SDS011;5715;48.234;14.320;2023-12-14T16:23:54;3.53;;;2.70;;
11319;SDS011;5715;48.234;14.320;2023-12-14T16:26:42;6.50;;;3.40;;
11319;SDS011;5715;48.234;14.320;2023-12-14T16:29:37;3.83;;;2.13;;
11319;SDS011;5715;48.234;14.320;2023-12-14T16:32:25;1.93;;;1.80;;
11319;SDS011;5715;48.234;14.320;2023-12-14T16:35:14;4.10;;;2.23;;
11319;SDS011;5715;48.234;14.320;2023-12-14T16:38:05;2.67;;;2.23;;
11319;SDS011;5715;48.234;14.320;2023-12-14T16:40:52;3.70;;;2.77;;
11319;SDS011;5715;48.234;14.320;2023-12-14T16:43:40;2.20;;;2.00;;
11319;SDS011;5715;48.234;14.320;2023-12-14T16:46:28;2.10;;;1.90;;
11319;SDS011;5715;48.234;14.320;2023-12-14T16:49:15;3.63;;;2.87;;
11319;SDS011;5715;48.234;14.320;2023-12-14T16:52:03;3.43;;;2.70;;
11319;SDS011;5715;48.234;14.320;2023-12-14T16:54:51;4.27;;;2.30;;
11319;SDS011;5715;48.234;14.320;2023-12-14T16:57:39;4.20;;;3.00;;
11319;SDS011;5715;48.234;14.320;2023-12-14T17:00:26;3.17;;;2.83;;
11319;SDS011;5715;48.234;14.320;2023-12-14T17:03:14;3.03;;;2.70;;